createdAt,value
2023-03-17T00:00:51.229Z,6.80
2023-03-17T00:03:22.087Z,6.70
2023-03-17T00:05:49.484Z,6.60
2023-03-17T00:08:21.396Z,6.60
2023-03-17T00:10:48.696Z,6.50
2023-03-17T00:13:15.976Z,6.50
2023-03-17T00:15:43.408Z,6.50
2023-03-17T00:18:13.702Z,6.40
2023-03-17T00:20:40.904Z,6.40
2023-03-17T00:23:15.256Z,6.40
2023-03-17T00:25:45.314Z,6.30
2023-03-17T00:28:17.936Z,6.30
2023-03-17T00:30:45.416Z,6.20
2023-03-17T00:33:13.262Z,6.20
2023-03-17T00:35:40.855Z,6.20
2023-03-17T00:38:15.008Z,6.20
2023-03-17T00:43:12.583Z,6.20
2023-03-17T00:45:40.551Z,6.30
2023-03-17T00:48:14.813Z,6.30
2023-03-17T00:50:43.769Z,6.30
2023-03-17T00:53:13.741Z,6.30
2023-03-17T00:55:43.453Z,6.30
2023-03-17T00:58:14.043Z,6.40
2023-03-17T01:00:40.891Z,6.40
2023-03-17T01:03:12.035Z,6.40
2023-03-17T01:05:39.891Z,6.40
2023-03-17T01:08:09.214Z,6.30
2023-03-17T01:10:37.180Z,6.30
2023-03-17T01:13:06.666Z,6.20
2023-03-17T01:15:34.223Z,6.20
2023-03-17T01:18:02.660Z,6.10
2023-03-17T01:20:32.142Z,6.10
2023-03-17T01:22:59.463Z,6.10
2023-03-17T01:25:27.525Z,6.10
2023-03-17T01:27:55.661Z,6.10
2023-03-17T01:30:27.454Z,6.10
2023-03-17T01:32:55.740Z,6.10
2023-03-17T01:35:24.441Z,6.10
2023-03-17T01:37:51.706Z,6.00
2023-03-17T01:40:22.147Z,6.10
2023-03-17T01:42:54.109Z,6.10
2023-03-17T01:45:59.368Z,6.10
2023-03-17T01:48:30.241Z,6.10
2023-03-17T01:50:58.889Z,6.20
2023-03-17T01:53:26.495Z,6.20
2023-03-17T01:55:55.019Z,6.20
2023-03-17T01:58:24.157Z,6.20
2023-03-17T02:00:51.066Z,6.20
2023-03-17T02:03:18.843Z,6.20
2023-03-17T02:05:48.481Z,6.30
2023-03-17T02:08:16.467Z,6.30
2023-03-17T02:10:44.766Z,6.40
2023-03-17T02:13:14.650Z,6.30
2023-03-17T02:15:43.577Z,6.30
2023-03-17T02:18:12.897Z,6.30
2023-03-17T02:21:30.487Z,6.30
2023-03-17T02:24:00.224Z,6.40
2023-03-17T02:26:31.266Z,6.40
2023-03-17T02:28:58.174Z,6.40
2023-03-17T02:31:27.043Z,6.40
2023-03-17T02:33:54.194Z,6.30
2023-03-17T02:36:21.939Z,6.30
2023-03-17T02:38:50.707Z,6.20
2023-03-17T02:41:17.569Z,6.10
2023-03-17T02:43:44.735Z,6.10
2023-03-17T02:46:11.821Z,6.10
2023-03-17T02:48:39.504Z,6.10
2023-03-17T02:51:06.929Z,6.10
2023-03-17T02:53:33.872Z,6.10
2023-03-17T02:56:02.242Z,6.20
2023-03-17T02:58:29.179Z,6.20
2023-03-17T03:00:56.527Z,6.20
2023-03-17T03:03:23.409Z,6.20
2023-03-17T03:05:50.872Z,6.20
2023-03-17T03:08:17.801Z,6.20
2023-03-17T03:10:44.696Z,6.10
2023-03-17T03:13:12.919Z,6.10
2023-03-17T03:15:41.838Z,6.10
2023-03-17T03:18:08.803Z,6.10
2023-03-17T03:20:36.204Z,6.20
2023-03-17T03:23:03.102Z,6.00
2023-03-17T03:25:29.997Z,6.00
2023-03-17T03:27:56.918Z,6.00
2023-03-17T03:30:25.153Z,6.00
2023-03-17T03:32:52.029Z,6.10
2023-03-17T03:35:18.878Z,6.10
2023-03-17T03:37:45.746Z,6.10
2023-03-17T03:40:13.398Z,6.10
2023-03-17T03:42:40.312Z,6.10
2023-03-17T03:45:08.148Z,6.10
2023-03-17T03:47:36.368Z,6.10
2023-03-17T03:50:03.471Z,6.10
2023-03-17T03:52:30.344Z,6.10
2023-03-17T03:54:57.190Z,6.10
2023-03-17T03:57:24.062Z,6.00
2023-03-17T03:59:51.001Z,6.00
2023-03-17T04:02:18.301Z,6.00
2023-03-17T04:04:46.995Z,6.00
2023-03-17T04:07:13.893Z,5.90
2023-03-17T04:09:40.940Z,5.90
2023-03-17T04:12:08.963Z,5.90
2023-03-17T04:14:36.551Z,5.90
2023-03-17T04:17:04.598Z,5.80
2023-03-17T04:19:31.532Z,5.80
2023-03-17T04:21:59.790Z,5.80
2023-03-17T04:24:27.712Z,5.80
2023-03-17T04:26:54.678Z,5.80
2023-03-17T04:29:21.604Z,5.70
2023-03-17T04:31:48.774Z,5.70
2023-03-17T04:34:17.661Z,5.60
2023-03-17T04:36:45.084Z,5.50
2023-03-17T04:39:13.584Z,5.50
2023-03-17T04:41:40.964Z,5.50
2023-03-17T04:44:08.427Z,5.50
2023-03-17T04:46:35.987Z,5.50
2023-03-17T04:49:02.851Z,5.50
2023-03-17T04:51:29.854Z,5.60
2023-03-17T04:53:56.781Z,5.60
2023-03-17T04:56:25.201Z,5.60
2023-03-17T04:58:52.074Z,5.60
2023-03-17T05:01:19.189Z,5.60
2023-03-17T05:03:46.099Z,5.60
2023-03-17T05:06:13.031Z,5.60
2023-03-17T05:08:39.862Z,5.60
2023-03-17T05:11:06.874Z,5.60
2023-03-17T05:13:35.809Z,5.50
2023-03-17T05:16:02.952Z,5.50
2023-03-17T05:18:29.927Z,5.50
2023-03-17T05:20:56.813Z,5.40
2023-03-17T05:23:23.750Z,5.40
2023-03-17T05:25:51.018Z,5.30
2023-03-17T05:28:18.230Z,5.30
2023-03-17T05:30:47.991Z,5.30
2023-03-17T05:33:15.328Z,5.30
2023-03-17T05:35:42.827Z,5.20
2023-03-17T05:38:12.198Z,5.20
2023-03-17T05:40:39.258Z,5.10
2023-03-17T05:43:06.136Z,5.10
2023-03-17T05:45:33.322Z,5.20
2023-03-17T05:48:01.500Z,5.20
2023-03-17T05:50:28.414Z,5.30
2023-03-17T05:52:55.282Z,5.30
2023-03-17T05:55:22.175Z,5.40
2023-03-17T05:57:49.070Z,5.50
2023-03-17T06:00:16.849Z,5.60
2023-03-17T06:02:43.774Z,5.80
2023-03-17T06:05:12.326Z,5.90
2023-03-17T06:07:51.654Z,6.00
2023-03-17T06:10:20.513Z,6.00
2023-03-17T06:12:47.490Z,6.10
2023-03-17T06:15:16.622Z,6.10
2023-03-17T06:17:43.626Z,6.10
2023-03-17T06:20:13.303Z,6.10
2023-03-17T06:22:51.709Z,6.10
2023-03-17T06:25:27.158Z,6.10
2023-03-17T06:27:56.104Z,6.10
2023-03-17T06:30:23.138Z,6.10
2023-03-17T06:32:50.262Z,6.10
2023-03-17T06:35:18.857Z,6.10
2023-03-17T06:37:45.709Z,6.00
2023-03-17T06:40:13.960Z,6.00
2023-03-17T06:42:41.268Z,6.00
2023-03-17T06:45:09.612Z,6.00
2023-03-17T06:47:37.248Z,6.00
2023-03-17T06:50:05.180Z,6.00
2023-03-17T06:52:33.398Z,6.10
2023-03-17T06:55:00.381Z,6.20
2023-03-17T06:57:27.396Z,6.30
2023-03-17T06:59:54.508Z,6.40
2023-03-17T07:02:21.415Z,6.50
2023-03-17T07:04:48.539Z,6.60
2023-03-17T07:07:16.261Z,6.80
2023-03-17T07:09:45.187Z,6.90
2023-03-17T07:12:12.320Z,7.10
2023-03-17T07:14:39.256Z,7.20
2023-03-17T07:17:06.725Z,7.40
2023-03-17T07:19:35.058Z,7.50
2023-03-17T07:22:01.995Z,7.60
2023-03-17T07:24:28.917Z,7.80
2023-03-17T07:26:57.321Z,7.90
2023-03-17T07:29:24.266Z,8.00
2023-03-17T07:31:51.251Z,8.20
2023-03-17T07:34:18.128Z,8.30
2023-03-17T07:36:45.019Z,8.40
2023-03-17T07:39:12.734Z,8.60
2023-03-17T07:41:39.789Z,8.70
2023-03-17T07:44:11.443Z,8.90
2023-03-17T07:46:38.960Z,9.00
2023-03-17T07:49:06.317Z,9.10
2023-03-17T07:51:33.374Z,9.20
2023-03-17T07:54:06.482Z,9.30
2023-03-17T07:56:33.410Z,9.40
2023-03-17T07:59:00.262Z,9.60
2023-03-17T08:01:29.069Z,9.70
2023-03-17T08:03:56.781Z,9.90
2023-03-17T08:06:27.070Z,10.00
2023-03-17T08:08:54.487Z,10.20
2023-03-17T08:11:21.864Z,10.40
2023-03-17T08:13:49.860Z,10.60
2023-03-17T08:16:17.225Z,10.80
2023-03-17T08:18:46.213Z,11.00
2023-03-17T08:21:15.784Z,11.30
2023-03-17T08:23:43.164Z,12.00
2023-03-17T08:26:10.262Z,12.70
2023-03-17T08:28:37.542Z,13.10
2023-03-17T08:31:12.209Z,13.40
2023-03-17T08:33:39.943Z,13.60
2023-03-17T08:36:09.787Z,14.00
2023-03-17T08:38:37.175Z,14.00
2023-03-17T08:41:06.795Z,14.20
2023-03-17T08:43:33.982Z,14.50
2023-03-17T08:46:04.120Z,14.90
2023-03-17T08:48:32.649Z,15.20
2023-03-17T08:50:59.480Z,15.40
2023-03-17T08:53:28.089Z,15.60
2023-03-17T08:55:55.767Z,16.10
2023-03-17T08:58:22.930Z,16.90
2023-03-17T09:00:49.844Z,17.40
2023-03-17T09:03:16.799Z,17.70
2023-03-17T09:05:44.036Z,18.00
2023-03-17T09:08:12.026Z,18.60
2023-03-17T09:10:42.508Z,18.90
2023-03-17T09:13:11.632Z,19.50
2023-03-17T09:15:38.870Z,20.20
2023-03-17T09:18:06.275Z,21.10
2023-03-17T09:20:33.933Z,21.60
2023-03-17T09:23:01.410Z,21.90
2023-03-17T09:25:28.342Z,22.40
2023-03-17T09:27:57.126Z,22.70
2023-03-17T09:30:24.043Z,22.70
2023-03-17T09:32:50.956Z,22.40
2023-03-17T09:35:18.180Z,21.90
2023-03-17T09:37:45.259Z,21.40
2023-03-17T09:40:17.133Z,20.90
2023-03-17T09:42:54.566Z,20.30
2023-03-17T09:45:32.422Z,19.80
2023-03-17T09:48:19.189Z,19.40
2023-03-17T09:50:51.447Z,19.00
2023-03-17T09:53:21.021Z,18.60
2023-03-17T09:55:51.642Z,18.40
2023-03-17T09:58:24.867Z,18.30
2023-03-17T10:00:52.992Z,18.10
2023-03-17T10:03:20.628Z,18.00
2023-03-17T10:05:47.525Z,18.10
2023-03-17T10:08:30.834Z,18.70
2023-03-17T10:11:05.470Z,19.40
2023-03-17T10:13:48.871Z,20.00
2023-03-17T10:16:20.881Z,20.50
2023-03-17T10:18:53.082Z,20.90
2023-03-17T10:21:25.907Z,21.20
2023-03-17T10:23:54.326Z,21.50
2023-03-17T10:26:29.417Z,21.60
2023-03-17T10:28:57.045Z,21.60
2023-03-17T10:31:32.869Z,21.60
2023-03-17T10:34:13.150Z,21.80
2023-03-17T10:36:42.568Z,21.80
2023-03-17T10:39:12.659Z,21.70
2023-03-17T10:41:41.737Z,21.50
2023-03-17T10:44:11.048Z,21.50
2023-03-17T10:46:40.182Z,21.30
2023-03-17T10:49:09.335Z,21.10
2023-03-17T10:51:38.370Z,20.70
2023-03-17T10:54:09.505Z,20.20
2023-03-17T10:56:39.654Z,20.10
2023-03-17T10:59:08.469Z,20.10
2023-03-17T11:01:39.889Z,20.10
2023-03-17T11:04:26.441Z,20.20
2023-03-17T11:06:56.410Z,20.20
2023-03-17T11:09:23.849Z,20.00
2023-03-17T11:12:05.442Z,20.00
2023-03-17T11:14:32.913Z,20.10
2023-03-17T11:17:03.466Z,20.30
2023-03-17T11:19:42.156Z,20.40
2023-03-17T11:22:14.970Z,20.30
2023-03-17T11:24:51.190Z,20.40
2023-03-17T11:27:25.237Z,20.50
2023-03-17T11:30:14.891Z,20.50
2023-03-17T11:32:50.873Z,20.60
2023-03-17T11:35:41.387Z,20.80
2023-03-17T11:38:24.626Z,21.10
2023-03-17T11:41:12.939Z,21.30
2023-03-17T11:43:51.585Z,21.40
2023-03-17T11:46:24.779Z,21.60
2023-03-17T11:48:58.926Z,21.80
2023-03-17T11:51:34.553Z,22.10
2023-03-17T11:54:09.703Z,22.20
2023-03-17T11:56:42.896Z,22.10
2023-03-17T11:59:27.863Z,22.30
2023-03-17T12:02:06.599Z,22.50
2023-03-17T12:04:37.988Z,22.60
2023-03-17T12:07:11.827Z,22.60
2023-03-17T12:09:42.886Z,22.40
2023-03-17T12:12:15.986Z,22.20
2023-03-17T12:14:46.402Z,21.90
2023-03-17T12:17:19.784Z,21.90
2023-03-17T12:20:04.346Z,21.80
2023-03-17T12:22:38.195Z,21.70
2023-03-17T12:25:12.943Z,21.60
2023-03-17T12:27:45.474Z,21.60
2023-03-17T12:30:21.824Z,21.80
2023-03-17T12:32:56.235Z,22.00
2023-03-17T12:35:29.120Z,22.00
2023-03-17T12:37:59.370Z,21.90
2023-03-17T12:40:33.670Z,21.80
2023-03-17T12:43:18.153Z,21.50
2023-03-17T12:46:04.070Z,21.20
2023-03-17T12:48:51.478Z,21.00
2023-03-17T12:51:54.150Z,20.80
2023-03-17T12:54:27.201Z,20.80
2023-03-17T12:57:02.172Z,21.10
2023-03-17T12:59:31.258Z,21.30
2023-03-17T13:02:06.183Z,21.40
2023-03-17T13:04:38.035Z,21.50
2023-03-17T13:07:12.823Z,21.50
2023-03-17T13:09:47.358Z,21.50
2023-03-17T13:13:05.742Z,21.30
2023-03-17T13:15:54.076Z,21.30
2023-03-17T13:18:51.234Z,21.20
2023-03-17T13:21:31.040Z,21.10
2023-03-17T13:24:40.071Z,21.20
2023-03-17T13:27:12.289Z,21.30
2023-03-17T13:29:45.451Z,21.30
2023-03-17T13:32:35.892Z,21.30
2023-03-17T13:35:36.686Z,21.10
2023-03-17T13:38:43.352Z,21.00
2023-03-17T13:41:27.489Z,20.90
2023-03-17T13:44:12.302Z,21.10
2023-03-17T13:46:44.066Z,21.30
2023-03-17T13:49:28.569Z,21.40
2023-03-17T13:52:01.660Z,21.40
2023-03-17T13:54:34.640Z,21.30
2023-03-17T13:57:26.206Z,21.00
2023-03-17T14:00:16.538Z,20.80
2023-03-17T14:02:45.213Z,21.00
2023-03-17T14:05:21.443Z,21.10
2023-03-17T14:07:54.469Z,21.10
2023-03-17T14:10:24.620Z,21.30
2023-03-17T14:12:59.928Z,21.30
2023-03-17T14:15:30.795Z,21.30
2023-03-17T14:18:02.218Z,21.20
2023-03-17T14:20:29.477Z,21.00
2023-03-17T14:22:59.875Z,20.90
2023-03-17T14:25:32.310Z,20.80
2023-03-17T14:28:00.951Z,20.80
2023-03-17T14:30:30.557Z,20.90
2023-03-17T14:33:03.760Z,20.90
2023-03-17T14:35:32.199Z,21.10
2023-03-17T14:38:00.172Z,21.10
2023-03-17T14:40:29.855Z,21.30
2023-03-17T14:42:57.353Z,21.20
2023-03-17T14:45:41.496Z,21.20
2023-03-17T14:48:12.937Z,21.00
2023-03-17T14:50:50.727Z,20.90
2023-03-17T14:53:18.786Z,20.70
2023-03-17T14:55:46.512Z,20.60
2023-03-17T14:58:22.027Z,20.70
2023-03-17T15:00:58.074Z,20.70
2023-03-17T15:03:29.689Z,20.70
2023-03-17T15:06:06.789Z,20.70
2023-03-17T15:08:41.481Z,20.70
2023-03-17T15:11:16.207Z,20.70
2023-03-17T15:13:43.325Z,20.70
2023-03-17T15:16:21.512Z,20.60
2023-03-17T15:18:55.004Z,20.60
2023-03-17T15:21:28.346Z,20.60
2023-03-17T15:23:55.462Z,20.60
2023-03-17T15:26:29.055Z,20.50
2023-03-17T15:28:57.676Z,20.30
2023-03-17T15:31:29.366Z,20.20
2023-03-17T15:33:57.860Z,20.20
2023-03-17T15:36:32.708Z,20.10
2023-03-17T15:39:01.103Z,20.00
2023-03-17T15:41:28.058Z,19.90
2023-03-17T15:43:55.386Z,19.90
2023-03-17T15:46:27.356Z,19.80
2023-03-17T15:48:54.785Z,19.70
2023-03-17T15:51:22.002Z,19.60
2023-03-17T15:53:49.102Z,19.60
2023-03-17T15:56:18.871Z,19.60
2023-03-17T15:58:47.907Z,19.70
2023-03-17T16:01:16.417Z,19.70
2023-03-17T16:03:47.108Z,19.60
2023-03-17T16:06:17.178Z,19.50
2023-03-17T16:08:45.258Z,19.40
2023-03-17T16:11:17.738Z,19.40
2023-03-17T16:13:45.144Z,19.40
2023-03-17T16:16:21.254Z,19.40
2023-03-17T16:18:51.574Z,19.40
2023-03-17T16:21:19.233Z,19.50
2023-03-17T16:23:47.116Z,19.40
2023-03-17T16:26:16.533Z,19.40
2023-03-17T16:28:45.130Z,19.30
2023-03-17T16:31:30.571Z,19.30
2023-03-17T16:33:58.876Z,19.30
2023-03-17T16:36:26.182Z,19.20
2023-03-17T16:38:53.304Z,19.20
2023-03-17T16:41:22.709Z,19.20
2023-03-17T16:43:52.579Z,19.10
2023-03-17T16:46:21.568Z,19.10
2023-03-17T16:48:49.718Z,19.00
2023-03-17T16:51:18.607Z,19.00
2023-03-17T16:53:45.893Z,18.90
2023-03-17T16:56:18.145Z,18.90
2023-03-17T16:58:45.657Z,18.80
2023-03-17T17:01:15.898Z,18.80
2023-03-17T17:03:43.320Z,18.70
2023-03-17T17:06:11.878Z,18.70
2023-03-17T17:08:41.165Z,18.70
2023-03-17T17:11:08.244Z,18.60
2023-03-17T17:13:35.592Z,18.60
2023-03-17T17:16:02.865Z,18.50
2023-03-17T17:18:29.734Z,18.50
2023-03-17T17:20:56.810Z,18.40
2023-03-17T17:23:26.372Z,18.30
2023-03-17T17:25:54.874Z,18.20
2023-03-17T17:28:23.767Z,18.10
2023-03-17T17:30:52.029Z,18.10
2023-03-17T17:33:20.018Z,18.00
2023-03-17T17:35:48.275Z,17.90
2023-03-17T17:38:21.627Z,17.80
2023-03-17T17:40:49.493Z,17.70
2023-03-17T17:43:18.225Z,17.50
2023-03-17T17:45:48.519Z,17.40
2023-03-17T17:48:16.231Z,17.30
2023-03-17T17:50:43.388Z,17.20
2023-03-17T17:53:12.218Z,17.20
2023-03-17T17:55:40.174Z,17.10
2023-03-17T17:58:07.647Z,17.00
2023-03-17T18:00:36.220Z,17.00
2023-03-17T18:03:03.226Z,17.00
2023-03-17T18:05:30.415Z,17.00
2023-03-17T18:07:58.144Z,16.90
2023-03-17T18:10:25.967Z,16.90
2023-03-17T18:12:53.465Z,16.80
2023-03-17T18:15:21.868Z,16.80
2023-03-17T18:17:50.365Z,16.80
2023-03-17T18:20:19.642Z,16.70
2023-03-17T18:22:46.686Z,16.70
2023-03-17T18:25:15.452Z,16.70
2023-03-17T18:27:43.120Z,16.70
2023-03-17T18:30:13.345Z,16.70
2023-03-17T18:32:42.647Z,16.60
2023-03-17T18:35:14.447Z,16.60
2023-03-17T18:37:41.856Z,16.60
2023-03-17T18:40:14.620Z,16.60
2023-03-17T18:42:43.269Z,16.50
2023-03-17T18:45:11.598Z,16.50
2023-03-17T18:47:39.067Z,16.50
2023-03-17T18:50:08.568Z,16.50
2023-03-17T18:52:39.168Z,16.40
2023-03-17T18:55:07.265Z,16.40
2023-03-17T18:57:34.219Z,16.30
2023-03-17T19:00:01.188Z,16.30
2023-03-17T19:02:28.061Z,16.30
2023-03-17T19:04:54.862Z,16.30
2023-03-17T19:07:22.321Z,16.20
2023-03-17T19:09:50.984Z,16.20
2023-03-17T19:12:18.505Z,16.20
2023-03-17T19:14:45.496Z,16.10
2023-03-17T19:17:12.285Z,16.10
2023-03-17T19:19:40.560Z,16.10
2023-03-17T19:22:07.623Z,16.00
2023-03-17T19:24:37.051Z,16.00
2023-03-17T19:27:05.611Z,16.00
2023-03-17T19:29:33.319Z,16.00
2023-03-17T19:32:00.501Z,16.00
2023-03-17T19:34:27.494Z,15.90
2023-03-17T19:36:54.588Z,15.90
2023-03-17T19:39:21.914Z,15.80
2023-03-17T19:41:52.648Z,15.80
2023-03-17T19:44:21.281Z,15.80
2023-03-17T19:46:48.360Z,15.70
2023-03-17T19:49:16.466Z,15.60
2023-03-17T19:51:43.840Z,15.50
2023-03-17T19:54:11.743Z,15.50
2023-03-17T19:56:38.900Z,15.50
2023-03-17T19:59:06.486Z,15.40
2023-03-17T20:01:37.717Z,15.50
2023-03-17T20:04:06.802Z,15.50
2023-03-17T20:06:34.598Z,15.40
2023-03-17T20:09:04.094Z,15.30
2023-03-17T20:11:33.911Z,15.20
2023-03-17T20:14:01.213Z,15.20
2023-03-17T20:16:30.268Z,15.20
2023-03-17T20:18:58.600Z,15.10
2023-03-17T20:21:25.798Z,15.10
2023-03-17T20:23:52.932Z,15.00
2023-03-17T20:26:20.103Z,15.00
2023-03-17T20:28:47.420Z,15.00
2023-03-17T20:31:14.545Z,15.00
2023-03-17T20:33:41.916Z,15.00
2023-03-17T20:36:10.254Z,14.90
2023-03-17T20:38:39.285Z,14.90
2023-03-17T20:41:08.705Z,14.90
2023-03-17T20:43:37.398Z,14.90
2023-03-17T20:46:08.329Z,14.90
2023-03-17T20:48:35.929Z,14.90
2023-03-17T20:51:06.377Z,14.80
2023-03-17T20:53:34.729Z,14.80
2023-03-17T20:56:02.684Z,14.80
2023-03-17T20:58:30.388Z,14.70
2023-03-17T21:00:58.353Z,14.70
2023-03-17T21:03:25.319Z,14.60
2023-03-17T21:05:53.312Z,14.60
2023-03-17T21:08:20.102Z,14.50
2023-03-17T21:10:48.224Z,14.50
2023-03-17T21:13:15.710Z,14.50
2023-03-17T21:15:42.577Z,14.50
2023-03-17T21:18:10.060Z,14.50
2023-03-17T21:20:37.526Z,14.50
2023-03-17T21:23:07.623Z,14.50
2023-03-17T21:25:36.100Z,14.50
2023-03-17T21:28:05.072Z,14.50
2023-03-17T21:30:33.773Z,14.50
2023-03-17T21:33:01.279Z,14.50
2023-03-17T21:35:30.791Z,14.50
2023-03-17T21:37:58.186Z,14.40
2023-03-17T21:40:26.012Z,14.40
2023-03-17T21:42:53.265Z,14.40
2023-03-17T21:45:21.977Z,14.30
2023-03-17T21:47:48.959Z,14.30
2023-03-17T21:50:17.738Z,14.30
2023-03-17T21:52:44.773Z,14.20
2023-03-17T21:55:12.093Z,14.20
2023-03-17T21:57:39.027Z,14.20
2023-03-17T22:00:11.613Z,14.20
2023-03-17T22:02:42.826Z,14.10
2023-03-17T22:05:10.452Z,14.00
2023-03-17T22:07:38.403Z,14.00
2023-03-17T22:10:07.296Z,14.00
2023-03-17T22:12:34.524Z,13.90
2023-03-17T22:15:01.386Z,13.90
2023-03-17T22:17:28.342Z,14.00
2023-03-17T22:19:56.756Z,13.90
2023-03-17T22:22:24.000Z,13.90
2023-03-17T22:24:51.042Z,13.90
2023-03-17T22:27:18.379Z,13.90
2023-03-17T22:29:46.252Z,13.90
2023-03-17T22:32:13.567Z,13.90
2023-03-17T22:34:40.515Z,13.80
2023-03-17T22:37:09.544Z,13.80
2023-03-17T22:39:36.760Z,13.80
2023-03-17T22:42:03.812Z,13.70
2023-03-17T22:44:30.819Z,13.70
2023-03-17T22:46:57.838Z,13.60
2023-03-17T22:49:24.996Z,13.60
2023-03-17T22:51:52.019Z,13.60
2023-03-17T22:54:21.621Z,13.50
2023-03-17T22:56:48.923Z,13.50
2023-03-17T22:59:15.914Z,13.50
2023-03-17T23:01:42.768Z,13.50
2023-03-17T23:04:09.652Z,13.50
2023-03-17T23:06:36.652Z,13.50
2023-03-17T23:09:04.704Z,13.40
2023-03-17T23:11:32.946Z,13.50
2023-03-17T23:13:59.765Z,13.50
2023-03-17T23:16:27.137Z,13.50
2023-03-17T23:18:54.366Z,13.40
2023-03-17T23:21:26.365Z,13.40
2023-03-17T23:23:53.383Z,13.40
2023-03-17T23:26:21.242Z,13.30
2023-03-17T23:28:49.595Z,13.30
2023-03-17T23:31:19.075Z,13.20
2023-03-17T23:33:46.727Z,13.20
2023-03-17T23:36:14.282Z,13.20
2023-03-17T23:38:42.613Z,13.20
2023-03-17T23:41:09.557Z,13.20
2023-03-17T23:43:37.387Z,13.20
2023-03-17T23:46:05.943Z,13.20
2023-03-17T23:48:33.929Z,13.20
2023-03-17T23:51:01.108Z,13.10
2023-03-17T23:53:28.393Z,13.10
2023-03-17T23:55:55.520Z,13.00
2023-03-17T23:58:22.936Z,12.90
